createdAt,value
2022-08-26T00:00:52.233Z,81.07
2022-08-26T00:01:47.542Z,81.05
2022-08-26T00:02:42.603Z,81.07
2022-08-26T00:03:37.604Z,81.10
2022-08-26T00:04:32.683Z,81.12
2022-08-26T00:05:27.817Z,81.16
2022-08-26T00:06:23.023Z,81.23
2022-08-26T00:07:18.003Z,81.29
2022-08-26T00:08:13.236Z,81.25
2022-08-26T00:09:08.371Z,81.31
2022-08-26T00:10:03.462Z,81.49
2022-08-26T00:10:59.895Z,81.58
2022-08-26T00:11:53.617Z,81.65
2022-08-26T00:12:48.631Z,81.65
2022-08-26T00:13:46.503Z,81.65
2022-08-26T00:14:38.764Z,81.57
2022-08-26T00:15:33.879Z,81.49
2022-08-26T00:16:28.959Z,81.46
2022-08-26T00:17:23.927Z,81.45
2022-08-26T00:18:22.213Z,81.36
2022-08-26T00:19:14.034Z,81.37
2022-08-26T00:20:09.041Z,81.39
2022-08-26T00:21:06.344Z,81.38
2022-08-26T00:21:59.307Z,81.33
2022-08-26T00:22:54.367Z,81.36
2022-08-26T00:23:49.516Z,81.36
2022-08-26T00:24:47.984Z,81.34
2022-08-26T00:25:42.582Z,81.37
2022-08-26T00:26:35.090Z,81.52
2022-08-26T00:27:30.356Z,81.57
2022-08-26T00:28:25.666Z,81.67
2022-08-26T00:29:21.208Z,81.77
2022-08-26T00:30:16.055Z,81.80
2022-08-26T00:31:12.255Z,81.86
2022-08-26T00:32:06.456Z,81.81
2022-08-26T00:33:01.549Z,81.92
2022-08-26T00:33:56.778Z,81.96
2022-08-26T00:34:51.958Z,81.92
2022-08-26T00:35:47.411Z,82.05
2022-08-26T00:36:42.491Z,82.15
2022-08-26T00:37:37.584Z,82.17
2022-08-26T00:38:32.740Z,82.14
2022-08-26T00:39:28.051Z,82.35
2022-08-26T00:40:23.337Z,82.42
2022-08-26T00:41:18.554Z,82.39
2022-08-26T00:42:13.715Z,82.49
2022-08-26T00:43:09.392Z,82.52
2022-08-26T00:44:04.054Z,82.58
2022-08-26T00:44:59.406Z,82.56
2022-08-26T00:45:54.472Z,82.61
2022-08-26T00:46:49.563Z,82.67
2022-08-26T00:47:44.907Z,82.55
2022-08-26T00:48:39.960Z,82.49
2022-08-26T00:49:35.099Z,82.45
2022-08-26T00:50:30.343Z,82.43
2022-08-26T00:51:29.557Z,82.43
2022-08-26T00:52:20.825Z,82.50
2022-08-26T00:53:15.929Z,82.44
2022-08-26T00:54:11.189Z,82.44
2022-08-26T00:55:06.379Z,82.53
2022-08-26T00:56:01.656Z,82.53
2022-08-26T00:56:56.769Z,82.62
2022-08-26T00:57:51.888Z,82.53
2022-08-26T00:58:47.148Z,82.43
2022-08-26T00:59:42.318Z,82.43
2022-08-26T01:00:37.610Z,82.47
2022-08-26T01:01:32.801Z,82.40
2022-08-26T01:02:28.076Z,82.40
2022-08-26T01:03:23.177Z,82.31
2022-08-26T01:04:18.453Z,82.14
2022-08-26T01:05:13.557Z,82.12
2022-08-26T01:06:12.561Z,82.17
2022-08-26T01:07:03.985Z,82.18
2022-08-26T01:07:59.200Z,82.09
2022-08-26T01:08:54.579Z,81.97
2022-08-26T01:09:49.659Z,82.04
2022-08-26T01:10:44.839Z,82.17
2022-08-26T01:11:40.005Z,82.26
2022-08-26T01:12:35.182Z,82.33
2022-08-26T01:13:30.461Z,82.38
2022-08-26T01:14:25.624Z,82.40
2022-08-26T01:15:20.904Z,82.32
2022-08-26T01:16:16.141Z,82.36
2022-08-26T01:17:11.192Z,82.22
2022-08-26T01:18:06.399Z,82.25
2022-08-26T01:19:01.546Z,82.22
2022-08-26T01:19:56.700Z,82.30
2022-08-26T01:20:51.943Z,82.36
2022-08-26T01:21:48.008Z,82.58
2022-08-26T01:22:42.086Z,82.70
2022-08-26T01:23:37.354Z,82.77
2022-08-26T01:24:32.531Z,82.74
2022-08-26T01:25:27.941Z,82.71
2022-08-26T01:26:23.017Z,82.67
2022-08-26T01:27:18.262Z,82.64
2022-08-26T01:28:13.364Z,82.56
2022-08-26T01:29:08.740Z,82.60
2022-08-26T01:30:03.989Z,82.62
2022-08-26T01:30:59.134Z,82.51
2022-08-26T01:31:54.626Z,82.67
2022-08-26T01:32:49.605Z,82.86
2022-08-26T01:33:44.828Z,82.93
2022-08-26T01:34:40.119Z,82.92
2022-08-26T01:35:35.316Z,82.82
2022-08-26T01:36:30.535Z,82.73
2022-08-26T01:37:25.921Z,82.67
2022-08-26T01:38:20.916Z,82.62
2022-08-26T01:39:16.070Z,82.75
2022-08-26T01:40:11.273Z,82.87
2022-08-26T01:41:16.365Z,82.91
2022-08-26T01:42:03.194Z,82.96
2022-08-26T01:42:56.838Z,83.00
2022-08-26T01:43:51.970Z,82.95
2022-08-26T01:44:47.136Z,83.05
2022-08-26T01:45:42.495Z,83.08
2022-08-26T01:46:37.564Z,83.07
2022-08-26T01:47:32.765Z,83.10
2022-08-26T01:48:28.053Z,83.05
2022-08-26T01:49:23.199Z,83.03
2022-08-26T01:50:27.744Z,83.20
2022-08-26T01:51:14.672Z,83.21
2022-08-26T01:52:08.765Z,83.27
2022-08-26T01:53:03.965Z,83.31
2022-08-26T01:53:59.473Z,83.20
2022-08-26T01:54:54.356Z,83.18
2022-08-26T01:55:49.562Z,83.18
2022-08-26T01:56:44.698Z,83.30
2022-08-26T01:57:39.969Z,83.31
2022-08-26T01:58:35.313Z,83.25
2022-08-26T01:59:30.451Z,83.26
2022-08-26T02:00:25.781Z,83.14
2022-08-26T02:01:20.909Z,83.09
2022-08-26T02:02:16.721Z,83.11
2022-08-26T02:03:11.942Z,83.15
2022-08-26T02:04:07.158Z,83.03
2022-08-26T02:05:02.465Z,83.10
2022-08-26T02:05:57.509Z,83.24
2022-08-26T02:06:52.869Z,83.32
2022-08-26T02:07:48.133Z,83.41
2022-08-26T02:08:43.289Z,83.48
2022-08-26T02:09:41.227Z,83.45
2022-08-26T02:10:33.966Z,83.45
2022-08-26T02:11:29.137Z,83.48
2022-08-26T02:12:24.309Z,83.50
2022-08-26T02:13:19.390Z,83.78
2022-08-26T02:14:14.536Z,83.72
2022-08-26T02:15:09.646Z,83.89
2022-08-26T02:16:04.730Z,83.72
2022-08-26T02:16:59.780Z,83.63
2022-08-26T02:17:54.849Z,83.65
2022-08-26T02:18:49.891Z,83.56
2022-08-26T02:19:44.846Z,83.39
2022-08-26T02:20:39.962Z,83.31
2022-08-26T02:21:34.967Z,83.30
2022-08-26T02:22:30.064Z,83.29
2022-08-26T02:23:25.068Z,83.33
2022-08-26T02:24:20.085Z,83.38
2022-08-26T02:25:15.155Z,83.52
2022-08-26T02:26:10.164Z,83.50
2022-08-26T02:27:05.198Z,83.49
2022-08-26T02:28:00.304Z,83.56
2022-08-26T02:28:55.315Z,83.66
2022-08-26T02:29:50.342Z,83.60
2022-08-26T02:30:45.458Z,83.56
2022-08-26T02:31:40.560Z,83.64
2022-08-26T02:32:35.513Z,83.70
2022-08-26T02:33:30.523Z,83.74
2022-08-26T02:34:25.695Z,83.69
2022-08-26T02:35:21.091Z,83.65
2022-08-26T02:36:16.358Z,83.63
2022-08-26T02:37:11.475Z,83.61
2022-08-26T02:38:10.254Z,83.58
2022-08-26T02:39:01.951Z,83.71
2022-08-26T02:39:57.256Z,83.65
2022-08-26T02:40:52.391Z,83.51
2022-08-26T02:41:47.551Z,83.40
2022-08-26T02:42:42.748Z,83.39
2022-08-26T02:43:38.132Z,83.39
2022-08-26T02:44:33.539Z,83.40
2022-08-26T02:45:28.471Z,83.60
2022-08-26T02:46:27.765Z,83.69
2022-08-26T02:47:18.548Z,83.72
2022-08-26T02:48:13.601Z,83.81
2022-08-26T02:49:08.595Z,83.75
2022-08-26T02:50:03.737Z,83.65
2022-08-26T02:50:58.799Z,83.68
2022-08-26T02:51:53.820Z,83.65
2022-08-26T02:52:48.975Z,83.63
2022-08-26T02:53:44.011Z,83.58
2022-08-26T02:54:39.060Z,83.63
2022-08-26T02:55:34.106Z,83.67
2022-08-26T02:56:29.103Z,83.71
2022-08-26T02:57:24.127Z,83.74
2022-08-26T02:58:19.094Z,83.74
2022-08-26T02:59:14.114Z,83.77
2022-08-26T03:00:09.178Z,83.69
2022-08-26T03:01:04.965Z,83.64
2022-08-26T03:01:59.202Z,83.57
2022-08-26T03:02:54.318Z,83.55
2022-08-26T03:03:49.573Z,83.56
2022-08-26T03:04:57.409Z,83.61
2022-08-26T03:05:41.099Z,83.74
2022-08-26T03:06:35.231Z,83.71
2022-08-26T03:07:30.419Z,83.63
2022-08-26T03:08:26.403Z,83.61
2022-08-26T03:09:21.564Z,83.67
2022-08-26T03:10:16.719Z,83.67
2022-08-26T03:11:12.018Z,83.73
2022-08-26T03:12:07.193Z,83.95
2022-08-26T03:13:05.066Z,84.02
2022-08-26T03:13:57.615Z,84.08
2022-08-26T03:14:52.799Z,84.20
2022-08-26T03:15:48.135Z,84.28
2022-08-26T03:16:43.448Z,84.27
2022-08-26T03:17:38.621Z,84.35
2022-08-26T03:18:33.841Z,84.25
2022-08-26T03:19:28.886Z,84.34
2022-08-26T03:20:24.039Z,84.36
2022-08-26T03:21:19.340Z,84.56
2022-08-26T03:22:14.665Z,84.49
2022-08-26T03:23:09.649Z,84.52
2022-08-26T03:24:04.583Z,84.54
2022-08-26T03:24:59.629Z,84.51
2022-08-26T03:25:54.755Z,84.47
2022-08-26T03:26:52.001Z,84.41
2022-08-26T03:27:44.747Z,84.44
2022-08-26T03:28:39.777Z,84.46
2022-08-26T03:29:34.971Z,84.52
2022-08-26T03:30:30.057Z,84.58
2022-08-26T03:31:25.175Z,84.74
2022-08-26T03:32:23.949Z,84.95
2022-08-26T03:33:18.993Z,85.06
2022-08-26T03:34:14.066Z,85.21
2022-08-26T03:35:09.200Z,85.35
2022-08-26T03:36:04.257Z,85.32
2022-08-26T03:36:59.313Z,85.19
2022-08-26T03:37:54.754Z,85.12
2022-08-26T03:38:50.366Z,85.08
2022-08-26T03:39:45.708Z,85.09
2022-08-26T03:40:40.709Z,85.13
2022-08-26T03:41:37.141Z,85.14
2022-08-26T03:42:32.363Z,85.18
2022-08-26T03:43:28.096Z,85.27
2022-08-26T03:44:23.241Z,85.28
2022-08-26T03:45:18.424Z,85.39
2022-08-26T03:46:14.330Z,85.38
2022-08-26T03:47:09.520Z,85.49
2022-08-26T03:48:05.264Z,85.54
2022-08-26T03:49:00.405Z,85.61
2022-08-26T03:49:55.734Z,85.62
2022-08-26T03:50:51.571Z,85.64
2022-08-26T03:51:46.770Z,85.68
2022-08-26T03:52:43.825Z,85.81
2022-08-26T03:53:38.323Z,85.94
2022-08-26T03:54:33.476Z,86.10
2022-08-26T03:55:29.290Z,86.29
2022-08-26T03:56:24.499Z,86.31
2022-08-26T03:57:19.673Z,86.36
2022-08-26T03:58:15.554Z,86.26
2022-08-26T03:59:10.717Z,86.18
2022-08-26T04:00:06.589Z,86.21
2022-08-26T04:01:01.748Z,86.36
2022-08-26T04:01:57.168Z,86.49
2022-08-26T04:02:53.301Z,86.54
2022-08-26T04:03:48.166Z,86.52
2022-08-26T04:04:43.441Z,86.48
2022-08-26T04:05:39.838Z,86.47
2022-08-26T04:06:35.144Z,86.50
2022-08-26T04:07:32.077Z,86.46
2022-08-26T04:08:26.154Z,86.39
2022-08-26T04:09:21.555Z,86.36
2022-08-26T04:10:16.651Z,86.31
2022-08-26T04:11:11.714Z,86.26
2022-08-26T04:12:09.197Z,86.01
2022-08-26T04:13:04.305Z,85.97
2022-08-26T04:13:59.311Z,85.71
2022-08-26T04:14:54.344Z,85.64
2022-08-26T04:15:49.426Z,85.73
2022-08-26T04:16:44.484Z,85.80
2022-08-26T04:17:39.578Z,85.66
2022-08-26T04:18:37.238Z,85.59
2022-08-26T04:19:29.592Z,85.51
2022-08-26T04:20:24.690Z,85.57
2022-08-26T04:21:19.823Z,85.44
2022-08-26T04:22:14.922Z,85.34
2022-08-26T04:23:11.452Z,85.41
2022-08-26T04:24:07.606Z,85.48
2022-08-26T04:25:01.061Z,85.58
2022-08-26T04:25:56.417Z,85.62
2022-08-26T04:26:52.114Z,85.66
2022-08-26T04:27:47.399Z,85.72
2022-08-26T04:28:42.651Z,85.90
2022-08-26T04:29:38.021Z,85.98
2022-08-26T04:30:33.293Z,85.98
2022-08-26T04:31:28.436Z,86.03
2022-08-26T04:32:23.455Z,86.08
2022-08-26T04:33:18.530Z,86.09
2022-08-26T04:34:14.598Z,86.22
2022-08-26T04:35:08.651Z,86.30
2022-08-26T04:36:03.696Z,86.34
2022-08-26T04:36:58.777Z,86.44
2022-08-26T04:37:53.811Z,86.50
2022-08-26T04:38:49.424Z,86.55
2022-08-26T04:39:45.033Z,86.62
2022-08-26T04:40:40.332Z,86.69
2022-08-26T04:41:37.132Z,86.79
2022-08-26T04:42:31.514Z,86.75
2022-08-26T04:43:26.993Z,86.68
2022-08-26T04:44:23.123Z,86.62
2022-08-26T04:45:18.485Z,86.49
2022-08-26T04:46:13.848Z,86.59
2022-08-26T04:47:09.278Z,86.48
2022-08-26T04:48:04.698Z,86.26
2022-08-26T04:48:59.768Z,86.17
2022-08-26T04:49:54.844Z,86.05
2022-08-26T04:50:49.920Z,86.08
2022-08-26T04:51:44.985Z,86.14
2022-08-26T04:52:45.353Z,86.13
2022-08-26T04:53:40.707Z,86.15
2022-08-26T04:54:36.077Z,86.08
2022-08-26T04:55:38.705Z,86.05
2022-08-26T04:56:27.581Z,86.02
2022-08-26T04:57:21.593Z,86.03
2022-08-26T04:58:16.573Z,86.07
2022-08-26T04:59:16.765Z,86.14
2022-08-26T05:00:07.658Z,86.27
2022-08-26T05:01:01.693Z,86.25
2022-08-26T05:01:56.874Z,86.25
2022-08-26T05:02:51.891Z,86.13
2022-08-26T05:03:47.009Z,86.18
2022-08-26T05:04:41.982Z,85.89
2022-08-26T05:05:37.104Z,85.68
2022-08-26T05:06:35.491Z,85.62
2022-08-26T05:07:28.086Z,85.53
2022-08-26T05:08:23.455Z,85.73
2022-08-26T05:09:18.825Z,85.47
2022-08-26T05:10:14.250Z,85.23
2022-08-26T05:11:09.653Z,85.06
2022-08-26T05:12:05.198Z,84.98
2022-08-26T05:13:00.503Z,85.07
2022-08-26T05:13:58.184Z,85.06
2022-08-26T05:14:52.397Z,84.98
2022-08-26T05:15:46.907Z,84.90
2022-08-26T05:16:42.308Z,84.94
2022-08-26T05:17:37.881Z,85.01
2022-08-26T05:18:33.370Z,85.04
2022-08-26T05:19:28.823Z,85.26
2022-08-26T05:20:26.119Z,85.15
2022-08-26T05:21:19.406Z,85.11
2022-08-26T05:22:14.441Z,85.05
2022-08-26T05:23:09.872Z,84.92
2022-08-26T05:24:04.635Z,84.68
2022-08-26T05:24:59.803Z,84.54
2022-08-26T05:25:58.940Z,84.45
2022-08-26T05:26:50.474Z,84.36
2022-08-26T05:27:47.185Z,84.43
2022-08-26T05:28:42.663Z,84.33
2022-08-26T05:29:38.121Z,84.22
2022-08-26T05:30:33.585Z,84.09
2022-08-26T05:31:28.989Z,84.07
2022-08-26T05:32:24.432Z,84.14
2022-08-26T05:33:19.987Z,84.18
2022-08-26T05:34:15.422Z,84.19
2022-08-26T05:35:10.859Z,84.20
2022-08-26T05:36:06.288Z,84.26
2022-08-26T05:37:01.780Z,84.22
2022-08-26T05:37:57.342Z,84.22
2022-08-26T05:38:52.809Z,84.08
2022-08-26T05:39:51.000Z,84.05
2022-08-26T05:40:43.748Z,84.10
2022-08-26T05:41:38.799Z,84.14
2022-08-26T05:42:33.795Z,84.01
2022-08-26T05:43:28.813Z,83.95
2022-08-26T05:44:23.859Z,84.06
2022-08-26T05:45:18.906Z,83.97
2022-08-26T05:46:14.153Z,84.02
2022-08-26T05:47:09.054Z,83.81
2022-08-26T05:48:04.089Z,83.65
2022-08-26T05:48:59.182Z,83.53
2022-08-26T05:49:54.225Z,83.47
2022-08-26T05:50:49.265Z,83.43
2022-08-26T05:51:44.329Z,83.40
2022-08-26T05:52:39.419Z,83.25
2022-08-26T05:53:34.477Z,83.26
2022-08-26T05:54:29.497Z,83.29
2022-08-26T05:55:24.587Z,83.24
2022-08-26T05:56:19.620Z,83.11
2022-08-26T05:57:14.977Z,83.04
2022-08-26T05:58:10.535Z,82.87
2022-08-26T05:59:06.369Z,82.70
2022-08-26T06:00:02.713Z,82.67
2022-08-26T06:00:57.080Z,82.73
2022-08-26T06:01:52.548Z,82.64
2022-08-26T06:02:48.427Z,82.71
2022-08-26T06:03:43.035Z,82.96
2022-08-26T06:04:38.072Z,82.89
2022-08-26T06:05:36.561Z,82.45
2022-08-26T06:06:29.613Z,82.06
2022-08-26T06:07:23.221Z,82.11
2022-08-26T06:08:19.317Z,82.19
2022-08-26T06:09:13.403Z,82.00
2022-08-26T06:10:31.056Z,81.97
2022-08-26T06:11:05.695Z,81.89
2022-08-26T06:12:00.162Z,81.94
2022-08-26T06:12:55.524Z,81.75
2022-08-26T06:13:51.268Z,81.60
2022-08-26T06:14:46.713Z,81.44
2022-08-26T06:15:42.257Z,81.21
2022-08-26T06:16:37.761Z,80.85
2022-08-26T06:17:33.191Z,80.72
2022-08-26T06:18:28.910Z,80.42
2022-08-26T06:19:24.062Z,80.37
2022-08-26T06:20:19.468Z,80.20
2022-08-26T06:21:15.030Z,80.18
2022-08-26T06:22:10.364Z,79.92
2022-08-26T06:23:09.661Z,79.83
2022-08-26T06:24:05.062Z,79.95
2022-08-26T06:25:00.514Z,79.52
2022-08-26T06:25:56.182Z,79.20
2022-08-26T06:26:51.682Z,78.99
2022-08-26T06:27:47.133Z,78.72
2022-08-26T06:28:43.582Z,78.30
2022-08-26T06:29:38.188Z,77.80
2022-08-26T06:30:33.640Z,77.52
2022-08-26T06:31:29.312Z,77.16
2022-08-26T06:32:24.693Z,76.76
2022-08-26T06:33:20.076Z,76.47
2022-08-26T06:34:15.645Z,75.97
2022-08-26T06:35:12.138Z,75.74
2022-08-26T06:36:06.575Z,75.31
2022-08-26T06:37:01.944Z,74.92
2022-08-26T06:37:56.696Z,74.38
2022-08-26T06:38:51.757Z,73.76
2022-08-26T06:39:46.822Z,73.23
2022-08-26T06:40:41.904Z,72.87
2022-08-26T06:41:40.179Z,72.74
2022-08-26T06:42:32.975Z,72.62
2022-08-26T06:43:27.011Z,72.41
2022-08-26T06:44:22.035Z,72.59
2022-08-26T06:45:17.063Z,72.27
2022-08-26T06:46:14.421Z,72.34
2022-08-26T06:47:09.839Z,72.23
2022-08-26T06:48:05.305Z,71.82
2022-08-26T06:49:00.759Z,71.48
2022-08-26T06:49:56.160Z,71.45
2022-08-26T06:50:51.701Z,71.31
2022-08-26T06:51:47.070Z,71.20
2022-08-26T06:52:42.470Z,71.10
2022-08-26T06:53:37.981Z,70.89
2022-08-26T06:54:33.386Z,70.54
2022-08-26T06:55:28.940Z,70.59
2022-08-26T06:56:24.377Z,70.13
2022-08-26T06:57:20.351Z,69.95
2022-08-26T06:58:15.859Z,69.74
2022-08-26T06:59:11.322Z,69.16
2022-08-26T07:00:06.400Z,69.12
2022-08-26T07:01:09.101Z,68.84
2022-08-26T07:01:57.451Z,68.59
2022-08-26T07:02:51.581Z,68.00
2022-08-26T07:03:46.720Z,67.55
2022-08-26T07:04:41.616Z,67.05
2022-08-26T07:05:36.627Z,66.62
2022-08-26T07:06:31.638Z,66.16
2022-08-26T07:07:26.710Z,65.84
2022-08-26T07:08:21.740Z,65.51
2022-08-26T07:09:16.797Z,65.67
2022-08-26T07:10:11.833Z,65.81
2022-08-26T07:11:06.890Z,66.23
2022-08-26T07:12:01.886Z,66.44
2022-08-26T07:12:56.966Z,66.90
2022-08-26T07:13:52.093Z,67.65
2022-08-26T07:14:47.394Z,67.34
2022-08-26T07:15:42.185Z,67.19
2022-08-26T07:16:37.144Z,67.01
2022-08-26T07:17:32.119Z,67.16
2022-08-26T07:18:27.220Z,66.42
2022-08-26T07:19:31.240Z,65.84
2022-08-26T07:20:18.416Z,65.58
2022-08-26T07:21:12.522Z,65.33
2022-08-26T07:22:07.567Z,64.71
2022-08-26T07:23:02.866Z,63.84
2022-08-26T07:24:01.316Z,63.45
2022-08-26T07:24:53.977Z,63.12
2022-08-26T07:25:49.471Z,62.93
2022-08-26T07:26:44.756Z,62.83
2022-08-26T07:27:40.198Z,62.66
2022-08-26T07:28:35.193Z,62.55
2022-08-26T07:29:30.218Z,61.80
2022-08-26T07:30:25.236Z,61.57
2022-08-26T07:31:20.310Z,61.43
2022-08-26T07:32:15.299Z,61.17
2022-08-26T07:33:10.290Z,60.71
2022-08-26T07:34:05.327Z,60.01
2022-08-26T07:35:00.304Z,60.32
2022-08-26T07:35:55.298Z,60.15
2022-08-26T07:36:50.288Z,59.90
2022-08-26T07:37:45.333Z,60.15
2022-08-26T07:38:40.302Z,60.96
2022-08-26T07:39:35.488Z,61.76
2022-08-26T07:40:30.505Z,62.25
2022-08-26T07:42:23.399Z,62.76
2022-08-26T07:43:18.743Z,62.55
2022-08-26T07:44:14.279Z,62.73
2022-08-26T07:45:09.698Z,63.10
2022-08-26T07:46:05.071Z,62.68
2022-08-26T07:47:00.617Z,62.67
2022-08-26T07:47:56.191Z,62.44
2022-08-26T07:48:51.640Z,62.13
2022-08-26T07:49:47.034Z,61.57
2022-08-26T07:50:50.173Z,60.40
2022-08-26T07:51:38.894Z,60.38
2022-08-26T07:52:33.220Z,60.81
2022-08-26T07:53:28.660Z,60.10
2022-08-26T07:54:27.004Z,60.00
2022-08-26T07:55:19.463Z,61.02
2022-08-26T07:56:14.915Z,62.23
2022-08-26T07:57:10.504Z,62.28
2022-08-26T07:58:05.856Z,62.75
2022-08-26T07:59:01.360Z,63.27
2022-08-26T07:59:56.811Z,64.02
2022-08-26T08:00:52.244Z,64.07
2022-08-26T08:01:47.736Z,63.79
2022-08-26T08:02:43.072Z,63.83
2022-08-26T08:03:38.123Z,63.86
2022-08-26T08:04:33.303Z,63.86
2022-08-26T08:05:30.587Z,63.81
2022-08-26T08:06:27.360Z,63.39
2022-08-26T08:07:18.583Z,63.09
2022-08-26T08:08:26.942Z,62.31
2022-08-26T08:09:09.653Z,61.58
2022-08-26T08:10:07.821Z,61.58
2022-08-26T08:10:59.769Z,60.95
2022-08-26T08:11:53.882Z,60.81
2022-08-26T08:12:49.024Z,60.39
2022-08-26T08:13:44.005Z,59.87
2022-08-26T08:14:39.183Z,60.40
2022-08-26T08:15:34.629Z,59.70
2022-08-26T08:16:32.287Z,60.29
2022-08-26T08:17:29.672Z,60.43
2022-08-26T08:18:24.961Z,59.81
2022-08-26T08:19:20.441Z,59.65
2022-08-26T08:20:15.822Z,59.35
2022-08-26T08:21:21.974Z,58.97
2022-08-26T08:22:17.240Z,59.37
2022-08-26T08:23:03.033Z,60.07
2022-08-26T08:23:57.441Z,59.84
2022-08-26T08:24:53.279Z,59.63
2022-08-26T08:25:48.363Z,58.91
2022-08-26T08:26:43.753Z,58.74
2022-08-26T08:27:39.185Z,59.14
2022-08-26T08:28:34.692Z,59.20
2022-08-26T08:29:30.152Z,58.45
2022-08-26T08:30:25.627Z,57.86
2022-08-26T08:31:38.671Z,58.14
2022-08-26T08:32:16.760Z,58.33
2022-08-26T08:33:10.769Z,58.28
2022-08-26T08:34:05.775Z,57.86
2022-08-26T08:35:00.884Z,57.60
2022-08-26T08:35:55.947Z,57.27
2022-08-26T08:36:53.293Z,56.76
2022-08-26T08:37:46.174Z,56.85
2022-08-26T08:38:41.027Z,57.04
2022-08-26T08:39:36.072Z,57.54
2022-08-26T08:40:32.294Z,58.23
2022-08-26T08:41:27.366Z,58.18
2022-08-26T08:42:23.623Z,57.95
2022-08-26T08:43:17.545Z,57.84
2022-08-26T08:44:12.606Z,57.86
2022-08-26T08:45:07.659Z,57.41
2022-08-26T08:46:02.771Z,56.48
2022-08-26T08:46:57.845Z,56.31
2022-08-26T08:47:54.108Z,56.38
2022-08-26T08:48:48.565Z,56.45
2022-08-26T08:49:43.917Z,56.94
2022-08-26T08:50:39.215Z,57.55
2022-08-26T08:51:34.575Z,58.19
2022-08-26T08:52:30.101Z,57.97
2022-08-26T08:53:25.586Z,58.40
2022-08-26T08:54:22.068Z,58.01
2022-08-26T08:55:18.308Z,58.00
2022-08-26T08:56:12.178Z,57.84
2022-08-26T08:57:07.624Z,57.67
2022-08-26T08:58:03.147Z,57.51
2022-08-26T08:58:58.626Z,56.43
2022-08-26T08:59:54.118Z,56.04
2022-08-26T09:00:49.223Z,56.26
2022-08-26T09:01:44.320Z,56.53
2022-08-26T09:02:39.395Z,56.75
2022-08-26T09:03:35.908Z,56.52
2022-08-26T09:04:30.960Z,56.98
2022-08-26T09:05:26.046Z,57.06
2022-08-26T09:06:21.090Z,56.98
2022-08-26T09:07:16.156Z,56.73
2022-08-26T09:08:11.626Z,56.29
2022-08-26T09:09:06.256Z,55.99
2022-08-26T09:10:01.346Z,55.59
2022-08-26T09:10:56.525Z,54.86
2022-08-26T09:11:51.526Z,55.18
2022-08-26T09:12:46.614Z,55.58
2022-08-26T09:13:42.415Z,56.52
2022-08-26T09:14:37.861Z,56.71
2022-08-26T09:15:33.166Z,56.09
2022-08-26T09:16:28.690Z,55.01
2022-08-26T09:17:24.098Z,54.70
2022-08-26T09:18:19.543Z,54.52
2022-08-26T09:19:19.054Z,54.02
2022-08-26T09:20:12.676Z,52.94
2022-08-26T09:21:08.167Z,52.46
2022-08-26T09:22:08.793Z,52.81
2022-08-26T09:23:00.329Z,53.19
2022-08-26T09:23:54.669Z,53.55
2022-08-26T09:24:50.098Z,54.42
2022-08-26T09:25:45.584Z,54.80
2022-08-26T09:26:41.000Z,55.29
2022-08-26T09:27:36.420Z,55.02
2022-08-26T09:28:31.966Z,54.25
2022-08-26T09:29:27.425Z,53.43
2022-08-26T09:30:22.877Z,53.22
2022-08-26T09:31:18.606Z,53.16
2022-08-26T09:32:13.889Z,53.88
2022-08-26T09:33:10.818Z,53.36
2022-08-26T09:34:04.072Z,52.95
2022-08-26T09:34:59.178Z,53.09
2022-08-26T09:35:54.214Z,53.09
2022-08-26T09:36:49.319Z,52.70
2022-08-26T09:38:39.496Z,52.41
2022-08-26T09:39:34.491Z,52.68
2022-08-26T09:40:29.653Z,52.71
2022-08-26T09:41:24.651Z,52.75
2022-08-26T09:42:20.895Z,52.68
2022-08-26T09:43:22.221Z,52.10
2022-08-26T09:44:14.574Z,52.32
2022-08-26T09:45:07.155Z,52.16
2022-08-26T09:46:02.636Z,52.53
2022-08-26T09:46:58.187Z,51.78
2022-08-26T09:47:53.555Z,50.80
2022-08-26T09:48:51.644Z,50.02
2022-08-26T09:49:44.455Z,50.39
2022-08-26T09:50:39.776Z,51.19
2022-08-26T09:51:35.181Z,50.76
2022-08-26T09:52:30.650Z,50.64
2022-08-26T09:53:28.637Z,50.09
2022-08-26T09:54:21.542Z,50.39
2022-08-26T09:55:18.001Z,50.56
2022-08-26T09:56:12.488Z,50.87
2022-08-26T09:57:07.979Z,51.00
2022-08-26T09:58:07.900Z,50.98
2022-08-26T09:58:59.775Z,50.94
2022-08-26T09:59:54.218Z,50.53
2022-08-26T10:00:49.835Z,50.96
2022-08-26T10:01:45.351Z,51.50
2022-08-26T10:02:40.454Z,51.71
2022-08-26T10:03:36.898Z,51.63
2022-08-26T10:04:35.504Z,51.35
2022-08-26T10:05:30.876Z,51.59
2022-08-26T10:06:26.315Z,50.99
2022-08-26T10:07:21.679Z,50.79
2022-08-26T10:08:17.165Z,51.12
2022-08-26T10:09:12.724Z,50.98
2022-08-26T10:10:08.184Z,50.69
2022-08-26T10:11:03.674Z,50.24
2022-08-26T10:11:58.702Z,50.31
2022-08-26T10:12:53.754Z,50.42
2022-08-26T10:13:48.879Z,49.47
2022-08-26T10:15:39.033Z,48.48
2022-08-26T10:16:34.142Z,48.49
2022-08-26T10:17:30.749Z,48.48
2022-08-26T10:18:24.306Z,48.36
2022-08-26T10:19:19.440Z,47.38
2022-08-26T10:20:23.599Z,47.78
2022-08-26T10:21:10.539Z,47.89
2022-08-26T10:22:04.689Z,47.80
2022-08-26T10:23:00.106Z,47.72
2022-08-26T10:23:55.580Z,47.59
2022-08-26T10:24:54.478Z,46.99
2022-08-26T10:25:46.391Z,47.73
2022-08-26T10:26:41.780Z,48.17
2022-08-26T10:27:37.201Z,48.17
2022-08-26T10:28:32.693Z,48.98
2022-08-26T10:29:28.005Z,49.44
2022-08-26T10:30:23.602Z,48.72
2022-08-26T10:31:20.056Z,48.81
2022-08-26T10:32:14.431Z,48.44
2022-08-26T10:33:09.899Z,47.67
2022-08-26T10:34:05.225Z,47.12
2022-08-26T10:35:01.248Z,46.82
2022-08-26T10:35:55.359Z,47.20
2022-08-26T10:37:14.111Z,46.97
2022-08-26T10:37:46.463Z,47.48
2022-08-26T10:38:40.511Z,47.56
2022-08-26T10:39:35.630Z,48.04
2022-08-26T10:40:30.809Z,48.86
2022-08-26T10:41:28.488Z,48.79
2022-08-26T10:42:23.506Z,49.43
2022-08-26T10:43:18.590Z,48.87
2022-08-26T10:45:39.884Z,47.78
2022-08-26T10:46:33.486Z,47.66
2022-08-26T10:47:29.042Z,47.29
2022-08-26T10:48:24.622Z,46.88
2022-08-26T10:49:20.074Z,46.69
2022-08-26T10:50:15.456Z,46.12
2022-08-26T10:51:10.924Z,45.78
2022-08-26T10:52:12.311Z,46.32
2022-08-26T10:53:02.825Z,46.04
2022-08-26T10:53:57.323Z,45.16
2022-08-26T10:54:52.852Z,44.42
2022-08-26T10:55:48.237Z,44.74
2022-08-26T10:56:43.464Z,44.49
2022-08-26T10:57:38.979Z,44.75
2022-08-26T10:58:34.503Z,43.95
2022-08-26T10:59:30.016Z,43.88
2022-08-26T11:00:27.428Z,44.76
2022-08-26T11:01:22.777Z,45.19
2022-08-26T11:02:16.381Z,44.94
2022-08-26T11:03:16.162Z,44.49
2022-08-26T11:04:08.302Z,44.99
2022-08-26T11:05:02.712Z,45.56
2022-08-26T11:05:58.281Z,44.55
2022-08-26T11:06:53.623Z,44.33
2022-08-26T11:07:49.000Z,44.40
2022-08-26T11:08:44.525Z,44.81
2022-08-26T11:09:39.963Z,45.17
2022-08-26T11:10:35.352Z,45.82
2022-08-26T11:11:30.742Z,45.97
2022-08-26T11:12:26.214Z,45.64
2022-08-26T11:13:21.692Z,45.35
2022-08-26T11:14:17.387Z,44.55
2022-08-26T11:15:13.758Z,43.17
2022-08-26T11:16:08.463Z,43.99
2022-08-26T11:17:03.829Z,44.50
2022-08-26T11:18:00.129Z,45.01
2022-08-26T11:18:54.721Z,44.90
2022-08-26T11:20:00.750Z,45.07
2022-08-26T11:20:47.145Z,45.44
2022-08-26T11:21:41.100Z,46.49
2022-08-26T11:22:36.641Z,47.24
2022-08-26T11:23:32.379Z,47.81
2022-08-26T11:24:27.760Z,48.51
2022-08-26T11:25:26.576Z,48.34
2022-08-26T11:26:37.671Z,48.12
2022-08-26T11:27:15.267Z,48.04
2022-08-26T11:28:09.947Z,48.00
2022-08-26T11:29:12.181Z,48.97
2022-08-26T11:30:01.563Z,49.63
2022-08-26T11:30:58.149Z,49.90
2022-08-26T11:31:51.728Z,50.49
2022-08-26T11:32:48.664Z,51.26
2022-08-26T11:33:42.529Z,51.31
2022-08-26T11:34:37.954Z,51.60
2022-08-26T11:35:33.545Z,51.84
2022-08-26T11:36:28.874Z,52.47
2022-08-26T11:37:24.298Z,52.35
2022-08-26T11:38:19.761Z,52.27
2022-08-26T11:39:15.257Z,52.32
2022-08-26T11:40:11.000Z,52.12
2022-08-26T11:41:06.300Z,52.64
2022-08-26T11:42:01.729Z,52.92
2022-08-26T11:42:57.141Z,52.80
2022-08-26T11:43:52.768Z,53.07
2022-08-26T11:44:49.613Z,53.31
2022-08-26T11:45:43.735Z,53.49
2022-08-26T11:46:39.170Z,54.45
2022-08-26T11:47:34.800Z,54.90
2022-08-26T11:48:30.255Z,55.75
2022-08-26T11:49:26.678Z,56.36
2022-08-26T11:50:22.155Z,57.08
2022-08-26T11:51:17.640Z,57.99
2022-08-26T11:52:13.284Z,59.04
2022-08-26T11:53:08.748Z,60.84
2022-08-26T11:54:04.238Z,61.80
2022-08-26T11:54:59.700Z,63.47
2022-08-26T11:55:55.205Z,64.29
2022-08-26T11:56:50.848Z,62.94